Time;durP1;ratioP1;P1;durP2;ratioP2;P2;SDS_P1;SDS_P2;PMS_P1;PMS_P2;Temp;Humidity;BMP_temperature;BMP_pressure;BME280_temperature;BME280_humidity;BME280_pressure;Samples;Min_cycle;Max_cycle;Signal;HPM_P1;HPM_P2
2022/10/30 00:00:47;;;;;;;0.70;0.70;;;;;;;10.27;75.96;100176.22;5050634;28;20204;-68
2022/10/30 00:03:16;;;;;;;0.63;0.63;;;;;;;10.24;75.71;100166.84;5050671;28;20204;-68
2022/10/30 00:05:43;;;;;;;0.70;0.70;;;;;;;10.17;75.91;100169.53;5050381;28;20201;-68
2022/10/30 00:08:13;;;;;;;0.60;0.60;;;;;;;10.10;76.54;100168.75;5049439;28;20339;-68
2022/10/30 00:10:40;;;;;;;0.80;0.80;;;;;;;10.07;76.58;100176.50;5050746;28;20192;-68
2022/10/30 00:13:07;;;;;;;0.60;0.60;;;;;;;10.02;76.49;100161.19;5049290;28;20616;-68
2022/10/30 00:15:35;;;;;;;0.60;0.60;;;;;;;10.11;76.32;100180.72;5050422;28;20196;-67
2022/10/30 00:18:01;;;;;;;0.60;0.60;;;;;;;10.08;76.63;100169.66;5049645;28;20661;-68
2022/10/30 00:20:28;;;;;;;2.13;1.00;;;;;;;9.89;76.56;100135.78;5050327;28;20211;-68
2022/10/30 00:22:55;;;;;;;0.70;0.70;;;;;;;10.05;76.51;100162.03;5050720;28;20612;-67
2022/10/30 00:25:24;;;;;;;0.80;0.80;;;;;;;10.05;76.70;100165.41;5050634;28;20201;-67
2022/10/30 00:27:50;;;;;;;0.80;0.80;;;;;;;10.03;76.29;100162.03;5049554;28;20212;-68
2022/10/30 00:30:17;;;;;;;0.50;0.50;;;;;;;9.98;76.32;100154.41;5050388;28;20211;-68
2022/10/30 00:32:44;;;;;;;0.97;0.97;;;;;;;9.89;76.74;100153.72;5050258;28;20218;-67
2022/10/30 00:35:11;;;;;;;0.77;0.77;;;;;;;9.82;77.19;100152.94;5050517;28;20262;-68
2022/10/30 00:37:38;;;;;;;0.87;0.87;;;;;;;9.85;77.70;100144.41;5049991;28;20655;-68
2022/10/30 00:40:06;;;;;;;0.67;0.67;;;;;;;9.86;76.77;100146.06;5050555;28;20211;-68
2022/10/30 00:42:35;;;;;;;0.70;0.70;;;;;;;9.83;76.77;100141.00;5049041;28;20243;-67
2022/10/30 00:45:01;;;;;;;0.50;0.50;;;;;;;9.82;77.13;100141.91;5050195;28;20212;-67
2022/10/30 00:47:33;;;;;;;0.70;0.70;;;;;;;9.79;76.54;100153.00;5050021;28;20220;-68
2022/10/30 00:50:05;;;;;;;0.97;0.97;;;;;;;9.77;76.63;100143.66;5049656;28;20906;-68
2022/10/30 00:52:34;;;;;;;0.77;0.77;;;;;;;9.72;77.02;100148.88;5049767;28;20208;-68
2022/10/30 00:55:05;;;;;;;0.70;0.70;;;;;;;9.68;77.34;100149.78;5049582;28;20211;-68
2022/10/30 00:57:35;;;;;;;0.60;0.60;;;;;;;9.65;77.20;100148.97;5050328;28;20657;-68
2022/10/30 01:00:03;;;;;;;0.83;0.83;;;;;;;9.65;77.02;100142.13;5049032;28;20201;-68
2022/10/30 01:02:30;;;;;;;0.70;0.70;;;;;;;9.59;76.40;100143.94;5049826;28;20679;-68
2022/10/30 01:04:57;;;;;;;0.60;0.60;;;;;;;9.50;76.95;100143.19;5050138;28;20561;-68
2022/10/30 01:07:24;;;;;;;0.80;0.80;;;;;;;9.38;77.34;100132.28;5047329;28;20265;-69
2022/10/30 01:09:51;;;;;;;0.60;0.60;;;;;;;9.33;77.34;100137.47;5049985;28;20619;-68
2022/10/30 01:12:18;;;;;;;0.70;0.70;;;;;;;9.15;77.21;100112.13;5049057;28;20208;-67
2022/10/30 01:14:50;;;;;;;0.80;0.80;;;;;;;9.26;77.36;100120.50;5048750;28;20216;-67
2022/10/30 01:17:39;;;;;;;0.60;0.60;;;;;;;9.24;77.04;100131.63;5049875;28;20711;-68
2022/10/30 01:20:22;;;;;;;1.13;1.13;;;;;;;9.19;77.24;100134.25;5051725;28;20213;-68
2022/10/30 01:22:58;;;;;;;0.50;0.50;;;;;;;9.15;77.22;100122.34;5053361;28;20200;-68
2022/10/30 01:25:43;;;;;;;0.83;0.83;;;;;;;9.05;77.88;100125.88;5053883;28;20192;-68
2022/10/30 01:28:28;;;;;;;0.67;0.67;;;;;;;9.01;78.04;100119.13;5053054;28;20225;-67
2022/10/30 01:31:13;;;;;;;0.73;0.73;;;;;;;8.97;78.25;100107.25;5053468;28;20273;-68
2022/10/30 01:33:55;;;;;;;0.60;0.60;;;;;;;8.86;78.56;100102.25;5053746;28;20205;-67
2022/10/30 01:36:28;;;;;;;0.70;0.70;;;;;;;8.87;79.38;100110.78;5053391;28;20196;-68
2022/10/30 01:38:59;;;;;;;0.60;0.60;;;;;;;8.88;79.02;100107.38;5053712;28;20197;-67
2022/10/30 01:41:26;;;;;;;0.70;0.70;;;;;;;8.89;78.74;100099.66;5053520;28;20197;-68
2022/10/30 01:43:57;;;;;;;0.63;0.63;;;;;;;8.87;78.87;100101.41;5052800;28;20200;-68
2022/10/30 01:46:42;;;;;;;0.60;0.60;;;;;;;8.84;78.76;100100.59;5053201;28;20197;-67
2022/10/30 01:49:42;;;;;;;0.70;0.70;;;;;;;8.75;78.09;100080.25;5053137;28;20577;-67
2022/10/30 01:52:16;;;;;;;0.50;0.50;;;;;;;8.82;78.36;100097.22;5049886;28;20203;-67
2022/10/30 01:54:52;;;;;;;0.60;0.60;;;;;;;8.77;78.51;100094.69;5053623;28;20196;-67
2022/10/30 01:57:30;;;;;;;0.83;0.83;;;;;;;8.79;78.24;100084.44;5052348;28;20599;-67
2022/10/30 02:00:02;;;;;;;0.70;0.70;;;;;;;8.80;78.25;100084.44;5052925;28;20204;-67
2022/10/30 02:02:31;;;;;;;0.60;0.60;;;;;;;8.79;78.07;100081.88;5053008;28;20266;-67
2022/10/30 02:04:58;;;;;;;0.80;0.80;;;;;;;8.82;78.32;100081.88;5053178;28;20200;-67
2022/10/30 02:07:25;;;;;;;0.60;0.60;;;;;;;8.79;78.49;100076.78;5052429;28;20220;-68
2022/10/30 02:09:53;;;;;;;0.60;0.60;;;;;;;8.82;78.46;100081.88;5052593;28;21110;-67
2022/10/30 02:12:21;;;;;;;0.60;0.60;;;;;;;8.85;78.81;100081.84;5051691;28;20242;-67
2022/10/30 02:14:53;;;;;;;0.60;0.60;;;;;;;8.80;78.33;100074.22;5052472;28;20204;-68
2022/10/30 02:17:20;;;;;;;0.67;0.67;;;;;;;8.75;78.93;100072.59;5052860;28;20274;-67
2022/10/30 02:19:48;;;;;;;1.50;1.50;;;;;;;8.74;79.23;100068.31;5052847;28;20262;-68
2022/10/30 02:22:17;;;;;;;0.73;0.73;;;;;;;8.71;79.65;100065.81;5052538;28;20665;-68
2022/10/30 02:24:45;;;;;;;0.97;0.97;;;;;;;8.69;79.81;100072.66;5052647;28;20197;-68
2022/10/30 02:27:12;;;;;;;0.80;0.80;;;;;;;8.58;79.83;100062.56;5052379;28;20221;-68
2022/10/30 02:29:39;;;;;;;0.70;0.70;;;;;;;8.60;79.94;100067.63;5052469;28;20262;-68
2022/10/30 02:32:05;;;;;;;0.70;0.70;;;;;;;8.60;80.50;100071.03;5051607;28;20649;-68
2022/10/30 02:34:32;;;;;;;17.27;3.80;;;;;;;8.60;80.33;100076.16;5052253;28;20197;-67
2022/10/30 02:36:59;;;;;;;0.60;0.60;;;;;;;8.59;80.90;100078.72;5052255;28;20200;-67
2022/10/30 02:39:27;;;;;;;0.70;0.70;;;;;;;8.55;81.47;100072.81;5052433;28;20688;-67
2022/10/30 02:41:54;;;;;;;0.80;0.80;;;;;;;8.53;81.56;100073.69;5052192;28;20196;-68
2022/10/30 02:44:21;;;;;;;0.77;0.77;;;;;;;8.52;81.22;100066.88;5051717;28;20664;-68
2022/10/30 02:46:47;;;;;;;0.87;0.87;;;;;;;8.56;81.65;100073.66;5051707;28;20232;-67
2022/10/30 02:49:14;;;;;;;0.70;0.70;;;;;;;8.55;81.23;100067.69;5052075;28;20216;-67
2022/10/30 02:51:41;;;;;;;1.63;1.63;;;;;;;8.57;80.97;100065.09;5052339;28;20201;-67
2022/10/30 02:54:08;;;;;;;0.57;0.57;;;;;;;8.57;80.79;100060.00;5052132;28;20639;-68
2022/10/30 02:56:36;;;;;;;0.60;0.60;;;;;;;8.55;80.82;100077.06;5050875;28;20200;-68
2022/10/30 02:59:03;;;;;;;0.60;0.60;;;;;;;8.53;81.01;100077.06;5051083;28;20661;-68
2022/10/30 03:01:30;;;;;;;1.07;1.07;;;;;;;8.26;81.68;100055.22;5051679;28;20200;-68
2022/10/30 03:03:56;;;;;;;0.83;0.83;;;;;;;8.31;81.72;100071.34;5052121;28;20196;-67
2022/10/30 03:06:23;;;;;;;0.70;0.70;;;;;;;8.35;81.55;100070.47;5051592;28;20205;-67
2022/10/30 03:08:50;;;;;;;0.80;0.80;;;;;;;8.36;81.46;100071.31;5051182;28;20222;-68
2022/10/30 03:11:19;;;;;;;0.60;0.60;;;;;;;8.31;80.52;100063.69;5050811;28;20205;-68
2022/10/30 03:13:48;;;;;;;0.80;0.80;;;;;;;8.24;80.86;100062.03;5051268;28;20232;-68
2022/10/30 03:16:17;;;;;;;0.70;0.70;;;;;;;8.18;81.08;100056.97;5051984;28;20204;-67
2022/10/30 03:18:44;;;;;;;0.67;0.67;;;;;;;8.15;80.95;100062.13;5050863;28;20255;-67
2022/10/30 03:21:13;;;;;;;0.70;0.70;;;;;;;8.18;81.02;100066.34;5051234;28;20204;-67
2022/10/30 03:23:40;;;;;;;0.60;0.60;;;;;;;8.12;81.52;100067.25;5051491;28;20669;-67
2022/10/30 03:26:07;;;;;;;0.80;0.80;;;;;;;8.09;81.51;100061.34;5051410;28;20197;-67
2022/10/30 03:28:34;;;;;;;0.73;0.73;;;;;;;8.10;81.81;100061.34;5051027;28;20216;-68
2022/10/30 03:31:05;;;;;;;0.87;0.87;;;;;;;8.08;81.98;100060.47;5051604;28;20196;-67
2022/10/30 03:33:32;;;;;;;0.60;0.60;;;;;;;8.09;81.84;100064.75;5051379;28;20296;-67
2022/10/30 03:35:59;;;;;;;0.80;0.80;;;;;;;8.08;81.67;100064.78;5051179;28;20258;-68
2022/10/30 03:38:27;;;;;;;0.70;0.70;;;;;;;8.07;81.81;100073.28;5051166;28;20193;-68
2022/10/30 03:40:54;;;;;;;0.90;0.90;;;;;;;7.96;82.38;100070.81;5050931;28;20203;-67
2022/10/30 03:43:21;;;;;;;0.80;0.80;;;;;;;7.96;82.91;100075.06;5051084;28;20215;-68
2022/10/30 03:45:49;;;;;;;0.77;0.77;;;;;;;7.87;83.26;100070.91;5048501;28;20205;-67
2022/10/30 03:48:18;;;;;;;0.60;0.60;;;;;;;7.88;83.55;100077.72;5051098;28;20723;-67
2022/10/30 03:50:45;;;;;;;0.90;0.90;;;;;;;7.85;83.29;100082.84;5050711;28;20205;-68
2022/10/30 03:53:12;;;;;;;0.80;0.80;;;;;;;7.85;83.17;100073.44;5050106;28;20197;-68
2022/10/30 03:55:39;;;;;;;0.60;0.60;;;;;;;7.80;82.50;100064.16;5051271;28;20204;-67
2022/10/30 03:58:07;;;;;;;1.10;1.10;;;;;;;7.92;82.19;100074.25;5051323;28;20577;-68
2022/10/30 04:00:34;;;;;;;0.90;0.90;;;;;;;7.91;82.33;100081.09;5050737;28;20201;-68
2022/10/30 04:03:01;;;;;;;0.60;0.60;;;;;;;7.89;82.08;100084.50;5050919;28;20580;-67
2022/10/30 04:05:31;;;;;;;0.67;0.67;;;;;;;7.90;82.18;100081.09;5048663;28;20220;-67
2022/10/30 04:07:59;;;;;;;0.70;0.70;;;;;;;7.81;81.95;100082.03;5047361;28;20326;-67
2022/10/30 04:10:26;;;;;;;1.10;1.10;;;;;;;7.84;81.84;100086.25;5050544;28;20661;-67
2022/10/30 04:12:53;;;;;;;0.83;0.83;;;;;;;7.81;81.72;100081.16;5048691;28;20236;-67
2022/10/30 04:15:20;;;;;;;0.70;0.70;;;;;;;7.79;81.50;100080.31;5049903;28;20261;-67
2022/10/30 04:17:50;;;;;;;0.70;0.70;;;;;;;7.76;81.36;100088.00;5050524;28;20200;-68
2022/10/30 04:20:22;;;;;;;0.70;0.70;;;;;;;7.76;81.81;100082.88;5050206;28;20668;-68
2022/10/30 04:22:55;;;;;;;0.70;0.70;;;;;;;7.61;81.60;100047.28;5050533;28;20208;-67
2022/10/30 04:25:23;;;;;;;0.90;0.90;;;;;;;7.62;81.16;100056.66;5050485;28;20254;-67
2022/10/30 04:27:51;;;;;;;0.60;0.60;;;;;;;7.68;81.75;100074.47;5050228;28;20635;-67
2022/10/30 04:30:20;;;;;;;0.70;0.70;;;;;;;7.70;81.86;100072.75;5050268;28;20208;-67
2022/10/30 04:32:47;;;;;;;0.73;0.73;;;;;;;7.63;81.42;100076.19;5050505;28;20699;-68
2022/10/30 04:35:14;;;;;;;0.70;0.70;;;;;;;7.62;81.43;100079.63;5050676;28;20205;-68
2022/10/30 04:37:41;;;;;;;0.67;0.67;;;;;;;7.62;81.67;100085.56;5047045;28;20208;-67
2022/10/30 04:40:11;;;;;;;0.70;0.70;;;;;;;7.66;81.62;100078.72;5044151;28;20208;-67
2022/10/30 04:42:37;;;;;;;0.70;0.70;;;;;;;7.63;82.06;100092.34;5045673;28;20204;-67
2022/10/30 04:45:05;;;;;;;0.80;0.80;;;;;;;7.62;82.53;100084.72;5047056;28;20664;-68
2022/10/30 04:47:32;;;;;;;0.73;0.73;;;;;;;7.64;83.00;100093.19;5048817;28;20204;-67
2022/10/30 04:49:59;;;;;;;0.70;0.70;;;;;;;7.63;83.34;100088.94;5049945;28;20213;-67
2022/10/30 04:52:25;;;;;;;0.70;0.70;;;;;;;7.45;83.39;100082.28;5049595;28;20201;-67
2022/10/30 04:54:52;;;;;;;0.70;0.70;;;;;;;7.54;83.48;100091.56;5052199;28;20201;-67
2022/10/30 04:57:20;;;;;;;0.70;0.70;;;;;;;7.58;83.25;100093.25;5054266;28;20265;-68
2022/10/30 04:59:47;;;;;;;0.77;0.77;;;;;;;7.60;83.36;100091.53;5054262;28;20192;-68
2022/10/30 05:02:14;;;;;;;0.80;0.80;;;;;;;7.60;83.55;100096.63;5053540;28;20200;-67
2022/10/30 05:04:41;;;;;;;0.60;0.60;;;;;;;7.60;83.08;100094.06;5053785;28;20208;-67
2022/10/30 05:07:08;;;;;;;0.80;0.80;;;;;;;7.55;83.49;100088.16;5053049;28;20605;-67
2022/10/30 05:09:34;;;;;;;0.60;0.60;;;;;;;7.53;83.79;100089.91;5054081;28;20217;-67
2022/10/30 05:12:01;;;;;;;0.63;0.63;;;;;;;7.48;83.74;100081.41;5052485;28;20207;-68
2022/10/30 05:14:30;;;;;;;0.70;0.70;;;;;;;7.53;83.48;100087.34;5053499;28;20662;-68
2022/10/30 05:16:57;;;;;;;0.90;0.90;;;;;;;7.47;83.81;100082.25;5052935;28;20647;-67
2022/10/30 05:19:25;;;;;;;0.60;0.60;;;;;;;7.46;84.15;100083.13;5054070;28;20197;-67
2022/10/30 05:21:52;;;;;;;0.63;0.63;;;;;;;7.48;83.83;100076.31;5053339;28;20232;-69
2022/10/30 05:24:19;;;;;;;0.83;0.83;;;;;;;7.47;83.74;100079.72;5052378;28;20227;-68
2022/10/30 05:26:46;;;;;;;0.73;0.73;;;;;;;7.50;83.92;100077.97;5053684;28;20200;-68
2022/10/30 05:29:13;;;;;;;0.70;0.70;;;;;;;7.51;83.53;100086.50;5053625;28;20274;-67
2022/10/30 05:31:41;;;;;;;0.60;0.60;;;;;;;7.47;84.24;100087.34;5052816;28;20211;-68
2022/10/30 05:34:08;;;;;;;0.80;0.80;;;;;;;7.56;84.76;100100.06;5053778;28;20204;-67
2022/10/30 05:36:35;;;;;;;0.80;0.80;;;;;;;7.58;84.89;100098.34;5053638;28;20197;-67
2022/10/30 05:39:02;;;;;;;0.70;0.70;;;;;;;7.64;85.10;100093.19;5053582;28;20201;-67
2022/10/30 05:41:29;;;;;;;0.60;0.60;;;;;;;7.64;85.05;100083.84;5053559;28;20223;-67
2022/10/30 05:43:56;;;;;;;0.60;0.60;;;;;;;7.67;85.00;100090.63;5053120;28;20192;-67
2022/10/30 05:46:23;;;;;;;0.60;0.60;;;;;;;7.72;84.95;100096.56;5053238;28;20201;-67
2022/10/30 05:48:51;;;;;;;0.80;0.80;;;;;;;7.74;85.07;100095.69;5053618;28;20494;-67
2022/10/30 05:51:18;;;;;;;0.80;0.80;;;;;;;7.77;85.00;100099.91;5052416;28;20254;-67
2022/10/30 05:53:47;;;;;;;1.57;1.47;;;;;;;7.83;85.14;100104.97;5053141;28;20577;-67
2022/10/30 05:56:14;;;;;;;0.80;0.80;;;;;;;7.85;85.32;100113.47;5053391;28;20203;-67
2022/10/30 05:58:41;;;;;;;0.73;0.73;;;;;;;7.86;86.11;100104.94;5050842;28;20205;-67
2022/10/30 06:01:08;;;;;;;0.60;0.60;;;;;;;7.93;86.97;100111.69;5051097;28;20581;-67
2022/10/30 06:03:35;;;;;;;0.70;0.70;;;;;;;7.96;87.04;100116.78;5047962;28;20197;-67
2022/10/30 06:06:03;;;;;;;1.00;1.00;;;;;;;8.01;87.49;100119.31;5050582;28;20200;-67
2022/10/30 06:08:30;;;;;;;0.67;0.67;;;;;;;8.02;87.41;100113.31;5050962;28;20309;-68
2022/10/30 06:10:57;;;;;;;0.60;0.60;;;;;;;8.05;88.17;100106.47;5051677;28;20573;-67
2022/10/30 06:13:24;;;;;;;0.70;0.70;;;;;;;8.06;88.74;100092.84;5049977;28;20227;-67
2022/10/30 06:15:51;;;;;;;0.67;0.67;;;;;;;8.16;88.44;100099.56;5049331;28;20212;-68
2022/10/30 06:18:17;;;;;;;0.70;0.70;;;;;;;8.27;89.52;100097.75;5047861;28;20801;-68
2022/10/30 06:20:44;;;;;;;0.67;0.67;;;;;;;8.34;90.26;100089.22;5049400;28;20200;-67
2022/10/30 06:23:12;;;;;;;0.80;0.80;;;;;;;8.43;91.30;100093.41;5048744;28;20653;-67
2022/10/30 06:25:39;;;;;;;0.70;0.70;;;;;;;8.51;92.30;100091.59;5050979;28;20262;-67
2022/10/30 06:28:06;;;;;;;0.57;0.57;;;;;;;8.52;91.58;100082.22;5050632;28;20201;-67
2022/10/30 06:30:33;;;;;;;0.70;0.70;;;;;;;8.54;93.25;100065.16;5051418;28;20204;-67
2022/10/30 06:33:01;;;;;;;0.60;0.60;;;;;;;8.68;93.17;100078.63;5050973;28;20567;-68
2022/10/30 06:35:28;;;;;;;1.07;1.07;;;;;;;8.79;94.01;100081.88;5050832;28;20293;-67
2022/10/30 06:37:58;;;;;;;0.80;0.80;;;;;;;8.78;94.04;100065.72;5051609;28;20227;-67
2022/10/30 06:40:28;;;;;;;0.60;0.60;;;;;;;8.91;93.15;100086.88;5052996;28;20278;-67
2022/10/30 06:42:55;;;;;;;0.50;0.50;;;;;;;9.02;94.04;100079.03;5051308;28;20697;-67
2022/10/30 06:45:23;;;;;;;0.67;0.67;;;;;;;9.16;95.37;100080.56;5051476;28;20207;-67
2022/10/30 06:47:50;;;;;;;0.50;0.50;;;;;;;9.33;95.88;100076.06;5050710;28;20205;-67
2022/10/30 06:50:19;;;;;;;0.70;0.70;;;;;;;9.50;96.03;100079.19;5050498;28;20600;-67
2022/10/30 06:52:47;;;;;;;2.13;1.03;;;;;;;9.60;95.22;100073.94;5049610;28;20209;-67
2022/10/30 06:55:13;;;;;;;0.80;0.80;;;;;;;9.79;95.28;100080.50;5050623;28;20200;-67
2022/10/30 06:57:42;;;;;;;1.03;0.90;;;;;;;9.88;95.21;100085.47;5048668;28;20207;-67
2022/10/30 07:00:09;;;;;;;0.50;0.50;;;;;;;10.09;94.62;100074.84;5048131;28;20559;-67
2022/10/30 07:02:36;;;;;;;0.57;0.57;;;;;;;10.17;93.77;100078.16;5049067;28;20216;-68
2022/10/30 07:05:04;;;;;;;0.57;0.57;;;;;;;10.21;93.54;100074.63;5050308;28;20201;-67
2022/10/30 07:07:30;;;;;;;0.50;0.50;;;;;;;10.35;93.20;100072.69;5050637;28;20292;-67
2022/10/30 07:09:57;;;;;;;0.50;0.50;;;;;;;10.54;93.48;100062.91;5050588;28;20281;-67
2022/10/30 07:12:24;;;;;;;1.60;0.87;;;;;;;10.67;93.55;100073.78;5049575;28;20228;-67
2022/10/30 07:14:52;;;;;;;0.67;0.67;;;;;;;11.05;92.81;100068.69;5050272;28;20975;-67
2022/10/30 07:17:19;;;;;;;0.57;0.57;;;;;;;11.20;91.04;100070.97;5050154;28;20210;-67
2022/10/30 07:19:45;;;;;;;0.60;0.60;;;;;;;11.31;89.79;100074.09;5050269;28;20205;-68
2022/10/30 07:22:12;;;;;;;0.60;0.60;;;;;;;11.50;89.54;100070.25;5047177;28;20212;-67
2022/10/30 07:24:39;;;;;;;0.53;0.53;;;;;;;11.90;88.19;100061.63;5045785;28;20203;-67
2022/10/30 07:27:06;;;;;;;0.60;0.60;;;;;;;12.31;86.35;100060.56;5047858;28;20220;-67
2022/10/30 07:29:32;;;;;;;0.50;0.50;;;;;;;12.49;84.64;100048.06;5046444;28;20350;-68
2022/10/30 07:32:01;;;;;;;0.50;0.50;;;;;;;12.90;83.16;100051.16;5047980;28;20262;-67
2022/10/30 07:34:27;;;;;;;0.60;0.60;;;;;;;13.17;80.51;100052.13;5050706;28;20196;-67
2022/10/30 07:36:54;;;;;;;0.60;0.60;;;;;;;13.39;79.10;100045.41;5050783;28;20204;-67
2022/10/30 07:39:21;;;;;;;0.60;0.60;;;;;;;13.62;78.72;100054.13;5047750;28;20220;-67
2022/10/30 07:41:49;;;;;;;0.50;0.50;;;;;;;13.81;77.87;100038.03;5049634;28;20675;-68
2022/10/30 07:44:16;;;;;;;0.57;0.57;;;;;;;13.99;76.97;100047.75;5049453;28;20342;-67
2022/10/30 07:46:42;;;;;;;0.53;0.53;;;;;;;14.29;75.76;100041.53;5049676;28;20208;-67
2022/10/30 07:49:11;;;;;;;0.50;0.50;;;;;;;14.48;75.32;100042.59;5048991;28;20609;-67
2022/10/30 07:51:37;;;;;;;0.60;0.60;;;;;;;14.71;74.14;100039.19;5048802;28;20580;-67
2022/10/30 07:54:04;;;;;;;0.70;0.70;;;;;;;14.99;73.95;100033.84;5046866;28;20205;-68
2022/10/30 07:56:31;;;;;;;0.50;0.50;;;;;;;15.25;73.05;100029.34;5045175;28;20200;-66
2022/10/30 07:58:58;;;;;;;0.70;0.70;;;;;;;15.48;72.36;100023.28;5048481;28;20196;-68
2022/10/30 08:01:25;;;;;;;0.60;0.60;;;;;;;15.61;72.14;100023.63;5049658;28;20917;-67
2022/10/30 08:03:51;;;;;;;0.70;0.70;;;;;;;15.87;71.97;100019.97;5050407;28;20200;-67
2022/10/30 08:06:20;;;;;;;0.50;0.50;;;;;;;16.00;72.27;100021.13;5048903;28;20204;-68
2022/10/30 08:08:46;;;;;;;0.83;0.83;;;;;;;16.26;71.40;100001.00;5049000;28;20204;-67
2022/10/30 08:11:13;;;;;;;0.57;0.57;;;;;;;16.48;71.22;100003.47;5049463;28;20215;-67
2022/10/30 08:13:40;;;;;;;0.57;0.57;;;;;;;16.71;70.27;100003.31;5048365;28;20228;-67
2022/10/30 08:16:07;;;;;;;0.60;0.60;;;;;;;16.90;69.67;100000.72;5049314;28;20266;-68
2022/10/30 08:18:34;;;;;;;0.40;0.40;;;;;;;17.19;68.65;100004.53;5046185;28;20204;-68
2022/10/30 08:21:01;;;;;;;0.60;0.60;;;;;;;17.35;68.83;99989.94;5049398;28;20573;-68
2022/10/30 08:23:29;;;;;;;0.60;0.60;;;;;;;17.55;67.93;99991.53;5047045;28;20216;-67
2022/10/30 08:25:59;;;;;;;0.60;0.60;;;;;;;17.71;66.24;99990.75;5045304;28;20323;-69
2022/10/30 08:28:26;;;;;;;1.33;1.33;;;;;;;17.84;66.66;99981.44;5047260;28;20627;-68
2022/10/30 08:30:52;;;;;;;0.57;0.57;;;;;;;17.93;64.90;99984.50;5044488;28;20590;-68
2022/10/30 08:33:19;;;;;;;0.60;0.60;;;;;;;18.01;65.13;99983.19;5047400;28;20209;-69
2022/10/30 08:35:50;;;;;;;0.50;0.50;;;;;;;18.20;64.33;99988.25;5045992;28;20213;-67
2022/10/30 08:38:17;;;;;;;0.50;0.50;;;;;;;18.42;64.21;99986.22;5046977;28;20213;-68
2022/10/30 08:40:45;;;;;;;0.73;0.73;;;;;;;18.54;62.31;99988.22;5048736;28;20335;-68
2022/10/30 08:43:13;;;;;;;0.50;0.50;;;;;;;18.59;63.59;99974.97;5048290;28;20205;-68
2022/10/30 08:45:40;;;;;;;0.60;0.60;;;;;;;18.85;60.38;99998.63;5048463;28;21422;-70
2022/10/30 08:48:10;;;;;;;0.70;0.70;;;;;;;18.91;61.44;99975.81;5046896;28;20206;-68
2022/10/30 08:50:36;;;;;;;0.50;0.50;;;;;;;19.08;59.96;99988.72;5047604;28;20274;-68
2022/10/30 08:53:04;;;;;;;0.50;0.50;;;;;;;19.15;60.22;99990.91;5047717;28;20214;-69
2022/10/30 08:55:31;;;;;;;0.50;0.50;;;;;;;19.30;59.98;99983.97;5046718;28;20697;-68
2022/10/30 08:58:00;;;;;;;0.50;0.50;;;;;;;19.37;59.44;99986.16;5047957;28;20206;-71
2022/10/30 09:00:27;;;;;;;0.50;0.50;;;;;;;19.50;59.10;99978.53;5047546;28;20592;-71
2022/10/30 09:02:54;;;;;;;0.53;0.53;;;;;;;19.57;59.13;99979.84;5048707;28;20203;-68
2022/10/30 09:05:21;;;;;;;0.53;0.53;;;;;;;19.61;58.52;99978.72;5048063;28;20886;-68
2022/10/30 09:07:48;;;;;;;0.47;0.47;;;;;;;19.69;57.80;99973.94;5044015;28;20232;-70
2022/10/30 09:10:15;;;;;;;0.53;0.53;;;;;;;19.84;57.71;99965.22;5048002;28;20234;-70
2022/10/30 09:12:42;;;;;;;0.60;0.60;;;;;;;19.98;56.80;99960.97;5046702;28;20732;-70
2022/10/30 09:15:10;;;;;;;0.87;0.87;;;;;;;20.11;57.86;99957.53;5049298;28;20198;-70
2022/10/30 09:17:37;;;;;;;0.50;0.50;;;;;;;20.35;56.57;99952.63;5041141;28;20202;-73
2022/10/30 09:20:05;;;;;;;0.50;0.50;;;;;;;20.45;55.34;99951.16;5047868;28;20682;-79
2022/10/30 09:22:32;;;;;;;0.60;0.60;;;;;;;20.57;53.38;99945.16;5048612;28;20724;-69
2022/10/30 09:24:59;;;;;;;0.50;0.50;;;;;;;20.72;52.83;99935.53;5047458;28;20202;-69
2022/10/30 09:27:26;;;;;;;0.67;0.67;;;;;;;20.75;51.08;99936.19;5047840;28;20479;-70
2022/10/30 09:29:53;;;;;;;0.50;0.50;;;;;;;20.85;50.72;99937.28;5048430;28;20211;-70
2022/10/30 09:32:21;;;;;;;0.40;0.40;;;;;;;20.97;51.46;99920.00;5047760;28;20289;-70
2022/10/30 09:34:48;;;;;;;0.40;0.40;;;;;;;21.08;51.22;99916.72;5049083;28;20204;-71
2022/10/30 09:37:14;;;;;;;0.50;0.50;;;;;;;21.19;49.83;99922.09;5048691;28;20200;-70
2022/10/30 09:39:41;;;;;;;0.43;0.43;;;;;;;21.40;49.50;99916.31;5048616;28;20203;-70
2022/10/30 09:42:35;;;;;;;0.40;0.40;;;;;;;21.56;47.45;99913.50;5052624;28;20207;-70
2022/10/30 09:45:21;;;;;;;0.70;0.70;;;;;;;21.61;48.09;99898.38;5051307;28;20215;-70
2022/10/30 09:48:01;;;;;;;0.40;0.40;;;;;;;21.69;46.42;99901.31;5052373;28;20256;-70
2022/10/30 09:50:32;;;;;;;0.40;0.40;;;;;;;21.74;46.90;99894.00;5052453;28;20593;-70
2022/10/30 09:53:07;;;;;;;0.50;0.50;;;;;;;21.80;44.82;99897.97;5053303;28;20649;-70
2022/10/30 09:55:43;;;;;;;0.57;0.57;;;;;;;21.88;44.90;99896.50;5051963;28;20222;-72
2022/10/30 09:58:20;;;;;;;0.30;0.30;;;;;;;21.94;44.64;99885.66;5052693;28;20706;-70
2022/10/30 10:00:52;;;;;;;0.43;0.43;;;;;;;21.95;44.99;99881.28;5051778;28;20584;-71
2022/10/30 10:03:33;;;;;;;0.40;0.40;;;;;;;22.15;42.62;99885.13;5052003;28;20199;-70
2022/10/30 10:06:02;;;;;;;0.60;0.60;;;;;;;22.22;44.65;99879.38;5050856;28;20209;-70
2022/10/30 10:08:37;;;;;;;0.30;0.30;;;;;;;22.31;42.71;99877.88;5051910;28;20205;-71
2022/10/30 10:11:12;;;;;;;0.40;0.40;;;;;;;22.37;42.57;99873.03;5051670;28;20675;-70
2022/10/30 10:13:44;;;;;;;0.40;0.40;;;;;;;22.55;41.73;99873.53;5052331;28;20703;-71
2022/10/30 10:16:16;;;;;;;0.40;0.40;;;;;;;22.61;40.63;99873.06;5049719;28;20197;-70
2022/10/30 10:18:47;;;;;;;0.40;0.40;;;;;;;22.67;41.04;99866.59;5049043;28;20275;-71
2022/10/30 10:21:23;;;;;;;0.40;0.40;;;;;;;22.75;40.76;99865.09;5043675;28;20731;-70
2022/10/30 10:23:52;;;;;;;0.40;0.40;;;;;;;22.79;39.64;99856.06;5050684;28;20215;-71
2022/10/30 10:26:28;;;;;;;0.40;0.40;;;;;;;22.89;40.27;99849.22;5051192;28;20204;-70
2022/10/30 10:29:07;;;;;;;0.40;0.40;;;;;;;23.01;39.09;99839.63;5050061;28;20270;-70
2022/10/30 10:31:42;;;;;;;0.30;0.30;;;;;;;23.08;38.47;99837.41;5049632;28;20282;-70
2022/10/30 10:34:32;;;;;;;0.27;0.27;;;;;;;23.09;38.71;99823.38;5050155;28;20580;-70
2022/10/30 10:37:04;;;;;;;0.30;0.30;;;;;;;23.18;39.87;99833.16;5048549;28;20197;-70
2022/10/30 10:39:46;;;;;;;0.33;0.33;;;;;;;23.21;38.29;99819.84;5049349;28;20623;-70
2022/10/30 10:42:24;;;;;;;0.40;0.40;;;;;;;23.23;39.49;99825.81;5050617;28;20694;-70
2022/10/30 10:45:12;;;;;;;0.37;0.37;;;;;;;23.26;38.27;99820.34;5049687;28;20235;-70
2022/10/30 10:48:07;;;;;;;0.37;0.37;;;;;;;23.36;37.12;99821.31;5050819;28;20197;-69
2022/10/30 10:50:41;;;;;;;0.30;0.30;;;;;;;23.47;37.76;99809.09;5049457;28;20221;-71
2022/10/30 10:53:15;;;;;;;0.30;0.30;;;;;;;23.57;38.00;99806.59;5049511;28;20192;-70
2022/10/30 10:55:48;;;;;;;0.30;0.30;;;;;;;23.63;36.52;99813.13;5048900;28;20204;-70
2022/10/30 10:58:29;;;;;;;0.30;0.30;;;;;;;23.64;36.52;99794.72;5050109;28;20208;-70
2022/10/30 11:00:58;;;;;;;0.40;0.40;;;;;;;23.74;36.37;99806.13;5050720;28;20665;-70
2022/10/30 11:03:32;;;;;;;0.40;0.40;;;;;;;23.71;35.64;99801.13;5050402;28;20200;-70
2022/10/30 11:06:12;;;;;;;0.37;0.37;;;;;;;23.72;35.89;99792.31;5049757;28;20226;-67
2022/10/30 11:08:39;;;;;;;0.40;0.40;;;;;;;23.76;35.85;99793.75;5047540;28;20553;-70
2022/10/30 11:11:07;;;;;;;0.30;0.30;;;;;;;23.81;35.56;99786.34;5049476;28;20222;-69
2022/10/30 11:13:36;;;;;;;0.93;0.93;;;;;;;23.76;36.14;99777.19;5049340;28;20601;-69
2022/10/30 11:16:17;;;;;;;0.30;0.30;;;;;;;23.87;35.34;99783.28;5048479;28;20193;-69
2022/10/30 11:18:47;;;;;;;0.30;0.30;;;;;;;24.00;35.32;99786.59;5047588;28;20627;-69
2022/10/30 11:21:19;;;;;;;0.30;0.30;;;;;;;23.95;35.30;99773.00;5049617;28;20224;-70
2022/10/30 11:23:47;;;;;;;0.30;0.30;;;;;;;24.01;35.20;99769.91;5050370;28;20201;-69
2022/10/30 11:26:29;;;;;;;0.20;0.20;;;;;;;24.07;33.96;99765.16;5049630;28;20301;-70
2022/10/30 11:28:59;;;;;;;0.20;0.20;;;;;;;24.07;34.62;99757.28;5048716;28;20684;-69
2022/10/30 11:31:33;;;;;;;0.30;0.30;;;;;;;24.11;34.74;99756.06;5049397;28;20316;-69
2022/10/30 11:34:14;;;;;;;0.40;0.40;;;;;;;24.24;33.82;99762.84;5049948;28;20201;-69
2022/10/30 11:36:42;;;;;;;0.30;0.30;;;;;;;24.25;33.87;99754.03;5049874;28;20198;-69
2022/10/30 11:39:10;;;;;;;0.37;0.37;;;;;;;24.30;33.27;99751.03;5049896;28;20208;-69
2022/10/30 11:41:38;;;;;;;0.40;0.40;;;;;;;24.38;33.83;99744.25;5048832;28;20212;-69